Aviation Digital Data Service (ADDS)

Output produced by METARs form (0337 UTC 18 June 2019)
found at http://www.aviationweather.gov/metar/data/
 
METAR text: URWW 180300Z VRB01MPS CAVOK 19/12 Q1013 R06/010070 NOSIG
Conditions at: URWW (VOLGOGRAD/GUMRAK, RU) observed 0300 UTC 18 June 2019
Temperature: 19.0°C (66°F)
Dewpoint: 12.0°C (54°F) [RH = 64%]
Pressure (altimeter): 29.91 inches Hg (1013.0 mb)
Winds: variable direction winds at 2 MPH (2 knots; 1.0 m/s)
Visibility: 6 or more miles (10+ km)
Ceiling: ceiling and visibility are OK
Clouds: unknown
Weather: no significant weather observed at this time

METAR text: URWW 180230Z VRB01MPS CAVOK 17/12 Q1013 R06/010070 NOSIG
Conditions at: URWW (VOLGOGRAD/GUMRAK, RU) observed 0230 UTC 18 June 2019
Temperature: 17.0°C (63°F)
Dewpoint: 12.0°C (54°F) [RH = 72%]
Pressure (altimeter): 29.91 inches Hg (1013.0 mb)
Winds: variable direction winds at 2 MPH (2 knots; 1.0 m/s)
Visibility: 6 or more miles (10+ km)
Ceiling: ceiling and visibility are OK
Clouds: unknown
Weather: no significant weather observed at this time

METAR text: URWW 180200Z 34002MPS CAVOK 15/12 Q1013 R06/010070 NOSIG
Conditions at: URWW (VOLGOGRAD/GUMRAK, RU) observed 0200 UTC 18 June 2019
Temperature: 15.0°C (59°F)
Dewpoint: 12.0°C (54°F) [RH = 82%]
Pressure (altimeter): 29.91 inches Hg (1013.0 mb)
Winds: from the NNW (340 degrees) at 5 MPH (4 knots; 2.1 m/s)
Visibility: 6 or more miles (10+ km)
Ceiling: ceiling and visibility are OK
Clouds: unknown
Weather: no significant weather observed at this time

METAR text: URWW 180130Z 33001MPS CAVOK 15/11 Q1013 R06/010070 NOSIG
Conditions at: URWW (VOLGOGRAD/GUMRAK, RU) observed 0130 UTC 18 June 2019
Temperature: 15.0°C (59°F)
Dewpoint: 11.0°C (52°F) [RH = 77%]
Pressure (altimeter): 29.91 inches Hg (1013.0 mb)
Winds: from the NNW (330 degrees) at 2 MPH (2 knots; 1.0 m/s)
Visibility: 6 or more miles (10+ km)
Ceiling: ceiling and visibility are OK
Clouds: unknown
Weather: no significant weather observed at this time

METAR text: URWW 180100Z 34002MPS 300V010 CAVOK 15/10 Q1013 R06/010070 NOSIG
Conditions at: URWW (VOLGOGRAD/GUMRAK, RU) observed 0100 UTC 18 June 2019
Temperature: 15.0°C (59°F)
Dewpoint: 10.0°C (50°F) [RH = 72%]
Pressure (altimeter): 29.91 inches Hg (1013.0 mb)
Winds: from the NNW (340 degrees) at 5 MPH (4 knots; 2.1 m/s)
Visibility: 6 or more miles (10+ km)
Ceiling: ceiling and visibility are OK
Clouds: unknown
Weather: no significant weather observed at this time

METAR text: URWW 180030Z 05003MPS CAVOK 17/09 Q1013 R06/010070 NOSIG
Conditions at: URWW (VOLGOGRAD/GUMRAK, RU) observed 0030 UTC 18 June 2019
Temperature: 17.0°C (63°F)
Dewpoint: 9.0°C (48°F) [RH = 59%]
Pressure (altimeter): 29.91 inches Hg (1013.0 mb)
Winds: from the NE (50 degrees) at 7 MPH (6 knots; 3.1 m/s)
Visibility: 6 or more miles (10+ km)
Ceiling: ceiling and visibility are OK
Clouds: unknown
Weather: no significant weather observed at this time

METAR text: URWW 180000Z 05003MPS CAVOK 17/10 Q1013 R06/010070 NOSIG
Conditions at: URWW (VOLGOGRAD/GUMRAK, RU) observed 0000 UTC 18 June 2019
Temperature: 17.0°C (63°F)
Dewpoint: 10.0°C (50°F) [RH = 63%]
Pressure (altimeter): 29.91 inches Hg (1013.0 mb)
Winds: from the NE (50 degrees) at 7 MPH (6 knots; 3.1 m/s)
Visibility: 6 or more miles (10+ km)
Ceiling: ceiling and visibility are OK
Clouds: unknown
Weather: no significant weather observed at this time

METAR text: URWW 172330Z 04003MPS CAVOK 16/10 Q1013 R06/010070 NOSIG
Conditions at: URWW (VOLGOGRAD/GUMRAK, RU) observed 2330 UTC 17 June 2019
Temperature: 16.0°C (61°F)
Dewpoint: 10.0°C (50°F) [RH = 68%]
Pressure (altimeter): 29.91 inches Hg (1013.0 mb)
Winds: from the NE (40 degrees) at 7 MPH (6 knots; 3.1 m/s)
Visibility: 6 or more miles (10+ km)
Ceiling: ceiling and visibility are OK
Clouds: unknown
Weather: no significant weather observed at this time

METAR text: URWW 172300Z 02002MPS CAVOK 16/11 Q1013 R06/010070 NOSIG
Conditions at: URWW (VOLGOGRAD/GUMRAK, RU) observed 2300 UTC 17 June 2019
Temperature: 16.0°C (61°F)
Dewpoint: 11.0°C (52°F) [RH = 72%]
Pressure (altimeter): 29.91 inches Hg (1013.0 mb)
Winds: from the NNE (20 degrees) at 5 MPH (4 knots; 2.1 m/s)
Visibility: 6 or more miles (10+ km)
Ceiling: ceiling and visibility are OK
Clouds: unknown
Weather: no significant weather observed at this time

METAR text: URWW 172230Z 00000MPS CAVOK 17/11 Q1013 R06/010070 NOSIG
Conditions at: URWW (VOLGOGRAD/GUMRAK, RU) observed 2230 UTC 17 June 2019
Temperature: 17.0°C (63°F)
Dewpoint: 11.0°C (52°F) [RH = 68%]
Pressure (altimeter): 29.91 inches Hg (1013.0 mb)
Winds: calm
Visibility: 6 or more miles (10+ km)
Ceiling: ceiling and visibility are OK
Clouds: unknown
Weather: no significant weather observed at this time

METAR text: URWW 172200Z 33002MPS 290V060 CAVOK 18/10 Q1013 R06/010070 NOSIG
Conditions at: URWW (VOLGOGRAD/GUMRAK, RU) observed 2200 UTC 17 June 2019
Temperature: 18.0°C (64°F)
Dewpoint: 10.0°C (50°F) [RH = 59%]
Pressure (altimeter): 29.91 inches Hg (1013.0 mb)
Winds: from the NNW (330 degrees) at 5 MPH (4 knots; 2.1 m/s)
Visibility: 6 or more miles (10+ km)
Ceiling: ceiling and visibility are OK
Clouds: unknown
Weather: no significant weather observed at this time

METAR text: URWW 172130Z 06002MPS CAVOK 18/10 Q1013 R06/010070 NOSIG
Conditions at: URWW (VOLGOGRAD/GUMRAK, RU) observed 2130 UTC 17 June 2019
Temperature: 18.0°C (64°F)
Dewpoint: 10.0°C (50°F) [RH = 59%]
Pressure (altimeter): 29.91 inches Hg (1013.0 mb)
Winds: from the ENE (60 degrees) at 5 MPH (4 knots; 2.1 m/s)
Visibility: 6 or more miles (10+ km)
Ceiling: ceiling and visibility are OK
Clouds: unknown
Weather: no significant weather observed at this time

METAR text: URWW 172100Z 06003MPS CAVOK 19/09 Q1013 R06/010070 NOSIG
Conditions at: URWW (VOLGOGRAD/GUMRAK, RU) observed 2100 UTC 17 June 2019
Temperature: 19.0°C (66°F)
Dewpoint: 9.0°C (48°F) [RH = 52%]
Pressure (altimeter): 29.91 inches Hg (1013.0 mb)
Winds: from the ENE (60 degrees) at 7 MPH (6 knots; 3.1 m/s)
Visibility: 6 or more miles (10+ km)
Ceiling: ceiling and visibility are OK
Clouds: unknown
Weather: no significant weather observed at this time

METAR text: URWW 172030Z 05004MPS CAVOK 20/09 Q1013 R06/010070 NOSIG
Conditions at: URWW (VOLGOGRAD/GUMRAK, RU) observed 2030 UTC 17 June 2019
Temperature: 20.0°C (68°F)
Dewpoint: 9.0°C (48°F) [RH = 49%]
Pressure (altimeter): 29.91 inches Hg (1013.0 mb)
Winds: from the NE (50 degrees) at 9 MPH (8 knots; 4.1 m/s)
Visibility: 6 or more miles (10+ km)
Ceiling: ceiling and visibility are OK
Clouds: unknown
Weather: no significant weather observed at this time

METAR text: URWW 172000Z 05004MPS CAVOK 20/09 Q1013 R06/010070 NOSIG
Conditions at: URWW (VOLGOGRAD/GUMRAK, RU) observed 2000 UTC 17 June 2019
Temperature: 20.0°C (68°F)
Dewpoint: 9.0°C (48°F) [RH = 49%]
Pressure (altimeter): 29.91 inches Hg (1013.0 mb)
Winds: from the NE (50 degrees) at 9 MPH (8 knots; 4.1 m/s)
Visibility: 6 or more miles (10+ km)
Ceiling: ceiling and visibility are OK
Clouds: unknown
Weather: no significant weather observed at this time

METAR text: URWW 171930Z 05004MPS CAVOK 20/10 Q1013 R06/010070 NOSIG
Conditions at: URWW (VOLGOGRAD/GUMRAK, RU) observed 1930 UTC 17 June 2019
Temperature: 20.0°C (68°F)
Dewpoint: 10.0°C (50°F) [RH = 53%]
Pressure (altimeter): 29.91 inches Hg (1013.0 mb)
Winds: from the NE (50 degrees) at 9 MPH (8 knots; 4.1 m/s)
Visibility: 6 or more miles (10+ km)
Ceiling: ceiling and visibility are OK
Clouds: unknown
Weather: no significant weather observed at this time

METAR text: URWW 171900Z 04003MPS CAVOK 20/11 Q1013 R06/010070 NOSIG
Conditions at: URWW (VOLGOGRAD/GUMRAK, RU) observed 1900 UTC 17 June 2019
Temperature: 20.0°C (68°F)
Dewpoint: 11.0°C (52°F) [RH = 56%]
Pressure (altimeter): 29.91 inches Hg (1013.0 mb)
Winds: from the NE (40 degrees) at 7 MPH (6 knots; 3.1 m/s)
Visibility: 6 or more miles (10+ km)
Ceiling: ceiling and visibility are OK
Clouds: unknown
Weather: no significant weather observed at this time

METAR text: URWW 171830Z 02003MPS CAVOK 20/11 Q1013 R06/010070 NOSIG
Conditions at: URWW (VOLGOGRAD/GUMRAK, RU) observed 1830 UTC 17 June 2019
Temperature: 20.0°C (68°F)
Dewpoint: 11.0°C (52°F) [RH = 56%]
Pressure (altimeter): 29.91 inches Hg (1013.0 mb)
Winds: from the NNE (20 degrees) at 7 MPH (6 knots; 3.1 m/s)
Visibility: 6 or more miles (10+ km)
Ceiling: ceiling and visibility are OK
Clouds: unknown
Weather: no significant weather observed at this time

METAR text: URWW 171800Z 02003MPS CAVOK 20/12 Q1013 R06/010070 NOSIG
Conditions at: URWW (VOLGOGRAD/GUMRAK, RU) observed 1800 UTC 17 June 2019
Temperature: 20.0°C (68°F)
Dewpoint: 12.0°C (54°F) [RH = 60%]
Pressure (altimeter): 29.91 inches Hg (1013.0 mb)
Winds: from the NNE (20 degrees) at 7 MPH (6 knots; 3.1 m/s)
Visibility: 6 or more miles (10+ km)
Ceiling: ceiling and visibility are OK
Clouds: unknown
Weather: no significant weather observed at this time

METAR text: URWW 171730Z 01003MPS CAVOK 21/13 Q1013 R06/010070 NOSIG
Conditions at: URWW (VOLGOGRAD/GUMRAK, RU) observed 1730 UTC 17 June 2019
Temperature: 21.0°C (70°F)
Dewpoint: 13.0°C (55°F) [RH = 60%]
Pressure (altimeter): 29.91 inches Hg (1013.0 mb)
Winds: from the N (10 degrees) at 7 MPH (6 knots; 3.1 m/s)
Visibility: 6 or more miles (10+ km)
Ceiling: ceiling and visibility are OK
Clouds: unknown
Weather: no significant weather observed at this time

METAR text: URWW 171700Z 35003MPS CAVOK 23/12 Q1012 R06/010070 NOSIG
Conditions at: URWW (VOLGOGRAD/GUMRAK, RU) observed 1700 UTC 17 June 2019
Temperature: 23.0°C (73°F)
Dewpoint: 12.0°C (54°F) [RH = 50%]
Pressure (altimeter): 29.88 inches Hg (1012.0 mb)
Winds: from the N (350 degrees) at 7 MPH (6 knots; 3.1 m/s)
Visibility: 6 or more miles (10+ km)
Ceiling: ceiling and visibility are OK
Clouds: unknown
Weather: no significant weather observed at this time

METAR text: URWW 171630Z 01003MPS CAVOK 25/10 Q1012 R06/010070 NOSIG
Conditions at: URWW (VOLGOGRAD/GUMRAK, RU) observed 1630 UTC 17 June 2019
Temperature: 25.0°C (77°F)
Dewpoint: 10.0°C (50°F) [RH = 39%]
Pressure (altimeter): 29.88 inches Hg (1012.0 mb)
Winds: from the N (10 degrees) at 7 MPH (6 knots; 3.1 m/s)
Visibility: 6 or more miles (10+ km)
Ceiling: ceiling and visibility are OK
Clouds: unknown
Weather: no significant weather observed at this time

METAR text: URWW 171600Z 36004MPS CAVOK 26/08 Q1012 R06/010070 NOSIG
Conditions at: URWW (VOLGOGRAD/GUMRAK, RU) observed 1600 UTC 17 June 2019
Temperature: 26.0°C (79°F)
Dewpoint: 8.0°C (46°F) [RH = 32%]
Pressure (altimeter): 29.88 inches Hg (1012.0 mb)
Winds: from the N (360 degrees) at 9 MPH (8 knots; 4.1 m/s)
Visibility: 6 or more miles (10+ km)
Ceiling: ceiling and visibility are OK
Clouds: unknown
Weather: no significant weather observed at this time

METAR text: URWW 171530Z 36005MPS CAVOK 27/08 Q1012 R06/010070 NOSIG
Conditions at: URWW (VOLGOGRAD/GUMRAK, RU) observed 1530 UTC 17 June 2019
Temperature: 27.0°C (81°F)
Dewpoint: 8.0°C (46°F) [RH = 30%]
Pressure (altimeter): 29.88 inches Hg (1012.0 mb)
Winds: from the N (360 degrees) at 12 MPH (10 knots; 5.1 m/s)
Visibility: 6 or more miles (10+ km)
Ceiling: ceiling and visibility are OK
Clouds: unknown
Weather: no significant weather observed at this time

METAR text: URWW 171500Z 36005MPS CAVOK 28/08 Q1012 R06/010070 NOSIG
Conditions at: URWW (VOLGOGRAD/GUMRAK, RU) observed 1500 UTC 17 June 2019
Temperature: 28.0°C (82°F)
Dewpoint: 8.0°C (46°F) [RH = 28%]
Pressure (altimeter): 29.88 inches Hg (1012.0 mb)
Winds: from the N (360 degrees) at 12 MPH (10 knots; 5.1 m/s)
Visibility: 6 or more miles (10+ km)
Ceiling: ceiling and visibility are OK
Clouds: unknown
Weather: no significant weather observed at this time

METAR text: URWW 171430Z 01006MPS CAVOK 28/09 Q1012 R06/010070 NOSIG
Conditions at: URWW (VOLGOGRAD/GUMRAK, RU) observed 1430 UTC 17 June 2019
Temperature: 28.0°C (82°F)
Dewpoint: 9.0°C (48°F) [RH = 30%]
Pressure (altimeter): 29.88 inches Hg (1012.0 mb)
Winds: from the N (10 degrees) at 14 MPH (12 knots; 6.2 m/s)
Visibility: 6 or more miles (10+ km)
Ceiling: ceiling and visibility are OK
Clouds: unknown
Weather: no significant weather observed at this time

METAR text: URWW 171400Z 36005MPS CAVOK 28/09 Q1012 R06/010070 NOSIG
Conditions at: URWW (VOLGOGRAD/GUMRAK, RU) observed 1400 UTC 17 June 2019
Temperature: 28.0°C (82°F)
Dewpoint: 9.0°C (48°F) [RH = 30%]
Pressure (altimeter): 29.88 inches Hg (1012.0 mb)
Winds: from the N (360 degrees) at 12 MPH (10 knots; 5.1 m/s)
Visibility: 6 or more miles (10+ km)
Ceiling: ceiling and visibility are OK
Clouds: unknown
Weather: no significant weather observed at this time

METAR text: URWW 171330Z 01004MPS 330V050 CAVOK 28/09 Q1012 R06/010070 NOSIG
Conditions at: URWW (VOLGOGRAD/GUMRAK, RU) observed 1330 UTC 17 June 2019
Temperature: 28.0°C (82°F)
Dewpoint: 9.0°C (48°F) [RH = 30%]
Pressure (altimeter): 29.88 inches Hg (1012.0 mb)
Winds: from the N (10 degrees) at 9 MPH (8 knots; 4.1 m/s)
Visibility: 6 or more miles (10+ km)
Ceiling: ceiling and visibility are OK
Clouds: unknown
Weather: no significant weather observed at this time

METAR text: URWW 171300Z 36005MPS 330V030 9999 FEW/// 28/10 Q1012 R06/010070 NOSIG
Conditions at: URWW (VOLGOGRAD/GUMRAK, RU) observed 1300 UTC 17 June 2019
Temperature: 28.0°C (82°F)
Dewpoint: 10.0°C (50°F) [RH = 32%]
Pressure (altimeter): 29.88 inches Hg (1012.0 mb)
Winds: from the N (360 degrees) at 12 MPH (10 knots; 5.1 m/s)
Visibility: 6 or more miles (10+ km)
Ceiling: unknown
Clouds: missing
Weather: no significant weather observed at this time

METAR text: URWW 171230Z 36005MPS 340V050 CAVOK 28/09 Q1012 R06/010070 NOSIG
Conditions at: URWW (VOLGOGRAD/GUMRAK, RU) observed 1230 UTC 17 June 2019
Temperature: 28.0°C (82°F)
Dewpoint: 9.0°C (48°F) [RH = 30%]
Pressure (altimeter): 29.88 inches Hg (1012.0 mb)
Winds: from the N (360 degrees) at 12 MPH (10 knots; 5.1 m/s)
Visibility: 6 or more miles (10+ km)
Ceiling: ceiling and visibility are OK
Clouds: unknown
Weather: no significant weather observed at this time

METAR text: URWW 171200Z 34005MPS 310V050 CAVOK 27/09 Q1012 R06/010070 NOSIG
Conditions at: URWW (VOLGOGRAD/GUMRAK, RU) observed 1200 UTC 17 June 2019
Temperature: 27.0°C (81°F)
Dewpoint: 9.0°C (48°F) [RH = 32%]
Pressure (altimeter): 29.88 inches Hg (1012.0 mb)
Winds: from the NNW (340 degrees) at 12 MPH (10 knots; 5.1 m/s)
Visibility: 6 or more miles (10+ km)
Ceiling: ceiling and visibility are OK
Clouds: unknown
Weather: no significant weather observed at this time

METAR text: URWW 171130Z 01006MPS CAVOK 28/09 Q1012 R06/010070 NOSIG
Conditions at: URWW (VOLGOGRAD/GUMRAK, RU) observed 1130 UTC 17 June 2019
Temperature: 28.0°C (82°F)
Dewpoint: 9.0°C (48°F) [RH = 30%]
Pressure (altimeter): 29.88 inches Hg (1012.0 mb)
Winds: from the N (10 degrees) at 14 MPH (12 knots; 6.2 m/s)
Visibility: 6 or more miles (10+ km)
Ceiling: ceiling and visibility are OK
Clouds: unknown
Weather: no significant weather observed at this time

METAR text: URWW 171100Z 36005MPS 330V030 CAVOK 27/09 Q1012 R06/010070 NOSIG
Conditions at: URWW (VOLGOGRAD/GUMRAK, RU) observed 1100 UTC 17 June 2019
Temperature: 27.0°C (81°F)
Dewpoint: 9.0°C (48°F) [RH = 32%]
Pressure (altimeter): 29.88 inches Hg (1012.0 mb)
Winds: from the N (360 degrees) at 12 MPH (10 knots; 5.1 m/s)
Visibility: 6 or more miles (10+ km)
Ceiling: ceiling and visibility are OK
Clouds: unknown
Weather: no significant weather observed at this time

METAR text: URWW 171030Z 02006MPS 9999 SCT/// 27/09 Q1012 R06/010070 NOSIG
Conditions at: URWW (VOLGOGRAD/GUMRAK, RU) observed 1030 UTC 17 June 2019
Temperature: 27.0°C (81°F)
Dewpoint: 9.0°C (48°F) [RH = 32%]
Pressure (altimeter): 29.88 inches Hg (1012.0 mb)
Winds: from the NNE (20 degrees) at 14 MPH (12 knots; 6.2 m/s)
Visibility: 6 or more miles (10+ km)
Ceiling: unknown
Clouds: missing
Weather: no significant weather observed at this time

METAR text: URWW 171000Z 36005MPS 320V030 9999 SCT/// 27/10 Q1013 R06/010070 NOSIG
Conditions at: URWW (VOLGOGRAD/GUMRAK, RU) observed 1000 UTC 17 June 2019
Temperature: 27.0°C (81°F)
Dewpoint: 10.0°C (50°F) [RH = 34%]
Pressure (altimeter): 29.91 inches Hg (1013.0 mb)
Winds: from the N (360 degrees) at 12 MPH (10 knots; 5.1 m/s)
Visibility: 6 or more miles (10+ km)
Ceiling: unknown
Clouds: missing
Weather: no significant weather observed at this time

METAR text: URWW 170930Z 36005MPS 300V060 CAVOK 26/11 Q1012 R06/010070 NOSIG
Conditions at: URWW (VOLGOGRAD/GUMRAK, RU) observed 0930 UTC 17 June 2019
Temperature: 26.0°C (79°F)
Dewpoint: 11.0°C (52°F) [RH = 39%]
Pressure (altimeter): 29.88 inches Hg (1012.0 mb)
Winds: from the N (360 degrees) at 12 MPH (10 knots; 5.1 m/s)
Visibility: 6 or more miles (10+ km)
Ceiling: ceiling and visibility are OK
Clouds: unknown
Weather: no significant weather observed at this time

METAR text: URWW 170900Z 02006MPS 350V050 CAVOK 26/11 Q1013 R06/010070 NOSIG
Conditions at: URWW (VOLGOGRAD/GUMRAK, RU) observed 0900 UTC 17 June 2019
Temperature: 26.0°C (79°F)
Dewpoint: 11.0°C (52°F) [RH = 39%]
Pressure (altimeter): 29.91 inches Hg (1013.0 mb)
Winds: from the NNE (20 degrees) at 14 MPH (12 knots; 6.2 m/s)
Visibility: 6 or more miles (10+ km)
Ceiling: ceiling and visibility are OK
Clouds: unknown
Weather: no significant weather observed at this time

METAR text: URWW 170830Z 02006MPS 350V060 CAVOK 26/11 Q1013 R06/010070 NOSIG
Conditions at: URWW (VOLGOGRAD/GUMRAK, RU) observed 0830 UTC 17 June 2019
Temperature: 26.0°C (79°F)
Dewpoint: 11.0°C (52°F) [RH = 39%]
Pressure (altimeter): 29.91 inches Hg (1013.0 mb)
Winds: from the NNE (20 degrees) at 14 MPH (12 knots; 6.2 m/s)
Visibility: 6 or more miles (10+ km)
Ceiling: ceiling and visibility are OK
Clouds: unknown
Weather: no significant weather observed at this time

METAR text: URWW 170800Z 02007MPS 350V050 CAVOK 25/11 Q1013 R06/010070 NOSIG
Conditions at: URWW (VOLGOGRAD/GUMRAK, RU) observed 0800 UTC 17 June 2019
Temperature: 25.0°C (77°F)
Dewpoint: 11.0°C (52°F) [RH = 41%]
Pressure (altimeter): 29.91 inches Hg (1013.0 mb)
Winds: from the NNE (20 degrees) at 16 MPH (14 knots; 7.2 m/s)
Visibility: 6 or more miles (10+ km)
Ceiling: ceiling and visibility are OK
Clouds: unknown
Weather: no significant weather observed at this time

METAR text: URWW 170730Z 04006MPS 360V090 CAVOK 24/12 Q1013 R06/010070 TEMPO -TSRAGR BKN040CB
Conditions at: URWW (VOLGOGRAD/GUMRAK, RU) observed 0730 UTC 17 June 2019
Temperature: 24.0°C (75°F)
Dewpoint: 12.0°C (54°F) [RH = 47%]
Pressure (altimeter): 29.91 inches Hg (1013.0 mb)
Winds: from the NE (40 degrees) at 14 MPH (12 knots; 6.2 m/s)
Visibility: 6 or more miles (10+ km)
Ceiling: ceiling and visibility are OK
Clouds: unknown
Weather: no significant weather observed at this time

METAR text: URWW 170700Z 03007MPS CAVOK 24/12 Q1012 R06/010070 TEMPO -TSRAGR BKN040CB
Conditions at: URWW (VOLGOGRAD/GUMRAK, RU) observed 0700 UTC 17 June 2019
Temperature: 24.0°C (75°F)
Dewpoint: 12.0°C (54°F) [RH = 47%]
Pressure (altimeter): 29.88 inches Hg (1012.0 mb)
Winds: from the NNE (30 degrees) at 16 MPH (14 knots; 7.2 m/s)
Visibility: 6 or more miles (10+ km)
Ceiling: ceiling and visibility are OK
Clouds: unknown
Weather: no significant weather observed at this time

METAR text: URWW 170630Z 04007MPS CAVOK 22/13 Q1012 R06/010070 TEMPO -TSRAGR BKN040CB
Conditions at: URWW (VOLGOGRAD/GUMRAK, RU) observed 0630 UTC 17 June 2019
Temperature: 22.0°C (72°F)
Dewpoint: 13.0°C (55°F) [RH = 57%]
Pressure (altimeter): 29.88 inches Hg (1012.0 mb)
Winds: from the NE (40 degrees) at 16 MPH (14 knots; 7.2 m/s)
Visibility: 6 or more miles (10+ km)
Ceiling: ceiling and visibility are OK
Clouds: unknown
Weather: no significant weather observed at this time

METAR text: URWW 170600Z 04004MPS CAVOK 20/14 Q1012 R06/010070 TEMPO -TSRAGR BKN040CB
Conditions at: URWW (VOLGOGRAD/GUMRAK, RU) observed 0600 UTC 17 June 2019
Temperature: 20.0°C (68°F)
Dewpoint: 14.0°C (57°F) [RH = 68%]
Pressure (altimeter): 29.88 inches Hg (1012.0 mb)
Winds: from the NE (40 degrees) at 9 MPH (8 knots; 4.1 m/s)
Visibility: 6 or more miles (10+ km)
Ceiling: ceiling and visibility are OK
Clouds: unknown
Weather: no significant weather observed at this time

METAR text: URWW 170530Z 02005MPS CAVOK 19/14 Q1012 R06/010070 TEMPO -TSRAGR BKN040CB
Conditions at: URWW (VOLGOGRAD/GUMRAK, RU) observed 0530 UTC 17 June 2019
Temperature: 19.0°C (66°F)
Dewpoint: 14.0°C (57°F) [RH = 73%]
Pressure (altimeter): 29.88 inches Hg (1012.0 mb)
Winds: from the NNE (20 degrees) at 12 MPH (10 knots; 5.1 m/s)
Visibility: 6 or more miles (10+ km)
Ceiling: ceiling and visibility are OK
Clouds: unknown
Weather: no significant weather observed at this time

METAR text: URWW 170500Z 03004MPS CAVOK 19/14 Q1012 R06/290060 TEMPO -TSRAGR BKN040CB
Conditions at: URWW (VOLGOGRAD/GUMRAK, RU) observed 0500 UTC 17 June 2019
Temperature: 19.0°C (66°F)
Dewpoint: 14.0°C (57°F) [RH = 73%]
Pressure (altimeter): 29.88 inches Hg (1012.0 mb)
Winds: from the NNE (30 degrees) at 9 MPH (8 knots; 4.1 m/s)
Visibility: 6 or more miles (10+ km)
Ceiling: ceiling and visibility are OK
Clouds: unknown
Weather: no significant weather observed at this time

METAR text: URWW 170430Z 02005MPS CAVOK 19/14 Q1012 R06/290060 TEMPO -TSRAGR BKN040CB
Conditions at: URWW (VOLGOGRAD/GUMRAK, RU) observed 0430 UTC 17 June 2019
Temperature: 19.0°C (66°F)
Dewpoint: 14.0°C (57°F) [RH = 73%]
Pressure (altimeter): 29.88 inches Hg (1012.0 mb)
Winds: from the NNE (20 degrees) at 12 MPH (10 knots; 5.1 m/s)
Visibility: 6 or more miles (10+ km)
Ceiling: ceiling and visibility are OK
Clouds: unknown
Weather: no significant weather observed at this time

METAR text: URWW 170400Z 03006MPS CAVOK 19/15 Q1011 R06/290060 TEMPO -TSRAGR BKN040CB
Conditions at: URWW (VOLGOGRAD/GUMRAK, RU) observed 0400 UTC 17 June 2019
Temperature: 19.0°C (66°F)
Dewpoint: 15.0°C (59°F) [RH = 78%]
Pressure (altimeter): 29.85 inches Hg (1011.0 mb)
Winds: from the NNE (30 degrees) at 14 MPH (12 knots; 6.2 m/s)
Visibility: 6 or more miles (10+ km)
Ceiling: ceiling and visibility are OK
Clouds: unknown
Weather: no significant weather observed at this time

METAR text: URWW 170330Z 04007MPS 9999 FEW056CB 20/15 Q1011 R06/290060 TEMPO VRB09G15MPS 1000 TSRAGR
Conditions at: URWW (VOLGOGRAD/GUMRAK, RU) observed 0330 UTC 17 June 2019
Temperature: 20.0°C (68°F)
Dewpoint: 15.0°C (59°F) [RH = 73%]
Pressure (altimeter): 29.85 inches Hg (1011.0 mb)
Winds: from the NE (40 degrees) at 16 MPH (14 knots; 7.2 m/s)
Visibility: 6 or more miles (10+ km)
Ceiling: at least 12,000 feet AGL
Clouds: few clouds at 5600 feet AGL
Weather: no significant weather observed at this time

METAR text: URWW 170300Z 05007MPS 9999 -SHRA SCT056CB 18/14 Q1011 R06/290060 TEMPO VRB09G15MPS 1000 TSRAGR
Conditions at: URWW (VOLGOGRAD/GUMRAK, RU) observed 0300 UTC 17 June 2019
Temperature: 18.0°C (64°F)
Dewpoint: 14.0°C (57°F) [RH = 77%]
Pressure (altimeter): 29.85 inches Hg (1011.0 mb)
Winds: from the NE (50 degrees) at 16 MPH (14 knots; 7.2 m/s)
Visibility: 6 or more miles (10+ km)
Ceiling: at least 12,000 feet AGL
Clouds: scattered clouds at 5600 feet AGL
Weather: -SHRA  (light rain showers)

METAR text: URWW 170230Z 04007MPS 9999 SCT056CB 17/15 Q1010 R06/290155 TEMPO VRB09G15MPS 1000 TSRAGR
Conditions at: URWW (VOLGOGRAD/GUMRAK, RU) observed 0230 UTC 17 June 2019
Temperature: 17.0°C (63°F)
Dewpoint: 15.0°C (59°F) [RH = 88%]
Pressure (altimeter): 29.82 inches Hg (1010.0 mb)
Winds: from the NE (40 degrees) at 16 MPH (14 knots; 7.2 m/s)
Visibility: 6 or more miles (10+ km)
Ceiling: at least 12,000 feet AGL
Clouds: scattered clouds at 5600 feet AGL
Weather: no significant weather observed at this time

METAR text: URWW 170200Z 04007MPS 9999 -SHRA BKN060CB 17/16 Q1010 RETSRA R06/290155 TEMPO VRB09G15MPS 1000 TSRAGR
Conditions at: URWW (VOLGOGRAD/GUMRAK, RU) observed 0200 UTC 17 June 2019
Temperature: 17.0°C (63°F)
Dewpoint: 16.0°C (61°F) [RH = 94%]
Pressure (altimeter): 29.82 inches Hg (1010.0 mb)
Winds: from the NE (40 degrees) at 16 MPH (14 knots; 7.2 m/s)
Visibility: 6 or more miles (10+ km)
Ceiling: 6000 feet AGL
Clouds: broken clouds at 6000 feet AGL
Weather: -SHRA  (light rain showers)

METAR text: URWW 170130Z 03005MPS 9999 TS SCT050CB 17/16 Q1010 R06/290155 TEMPO -TSRAGR
Conditions at: URWW (VOLGOGRAD/GUMRAK, RU) observed 0130 UTC 17 June 2019
Temperature: 17.0°C (63°F)
Dewpoint: 16.0°C (61°F) [RH = 94%]
Pressure (altimeter): 29.82 inches Hg (1010.0 mb)
Winds: from the NNE (30 degrees) at 12 MPH (10 knots; 5.1 m/s)
Visibility: 6 or more miles (10+ km)
Ceiling: at least 12,000 feet AGL
Clouds: scattered clouds at 5000 feet AGL
Weather: TS  (thunderstorm)

METAR text: URWW 170100Z 02005MPS 9999 SCT050CB 17/16 Q1010 R06/290155 TEMPO -TSRAGR
Conditions at: URWW (VOLGOGRAD/GUMRAK, RU) observed 0100 UTC 17 June 2019
Temperature: 17.0°C (63°F)
Dewpoint: 16.0°C (61°F) [RH = 94%]
Pressure (altimeter): 29.82 inches Hg (1010.0 mb)
Winds: from the NNE (20 degrees) at 12 MPH (10 knots; 5.1 m/s)
Visibility: 6 or more miles (10+ km)
Ceiling: at least 12,000 feet AGL
Clouds: scattered clouds at 5000 feet AGL
Weather: no significant weather observed at this time

METAR text: URWW 170030Z 02004MPS CAVOK 17/16 Q1010 R06/290155 TEMPO VRB12G20MPS 0500 +TSRAGR SQ BKN003 BKN040CB
Conditions at: URWW (VOLGOGRAD/GUMRAK, RU) observed 0030 UTC 17 June 2019
Temperature: 17.0°C (63°F)
Dewpoint: 16.0°C (61°F) [RH = 94%]
Pressure (altimeter): 29.82 inches Hg (1010.0 mb)
Winds: from the NNE (20 degrees) at 9 MPH (8 knots; 4.1 m/s)
Visibility: 6 or more miles (10+ km)
Ceiling: ceiling and visibility are OK
Clouds: unknown
Weather: no significant weather observed at this time

METAR text: URWW 170000Z 03005MPS CAVOK 17/17 Q1010 R06/290155 TEMPO VRB12G20MPS 0500 +TSRAGR SQ BKN003 BKN040CB
Conditions at: URWW (VOLGOGRAD/GUMRAK, RU) observed 0000 UTC 17 June 2019
Temperature: 17.0°C (63°F)
Dewpoint: 17.0°C (63°F) [RH = 100%]
Pressure (altimeter): 29.82 inches Hg (1010.0 mb)
Winds: from the NNE (30 degrees) at 12 MPH (10 knots; 5.1 m/s)
Visibility: 6 or more miles (10+ km)
Ceiling: ceiling and visibility are OK
Clouds: unknown
Weather: no significant weather observed at this time

METAR text: URWW 162330Z 35004MPS CAVOK 17/17 Q1010 R24/290155 TEMPO VRB12G20MPS 0500 +TSRAGR SQ BKN003 BKN040CB
Conditions at: URWW (VOLGOGRAD/GUMRAK, RU) observed 2330 UTC 16 June 2019
Temperature: 17.0°C (63°F)
Dewpoint: 17.0°C (63°F) [RH = 100%]
Pressure (altimeter): 29.82 inches Hg (1010.0 mb)
Winds: from the N (350 degrees) at 9 MPH (8 knots; 4.1 m/s)
Visibility: 6 or more miles (10+ km)
Ceiling: ceiling and visibility are OK
Clouds: unknown
Weather: no significant weather observed at this time

METAR text: URWW 162300Z 31004MPS 250V350 CAVOK 17/16 Q1010 R24/290155 TEMPO VRB12G20MPS 0500 +TSRAGR SQ BKN003 BKN040CB
Conditions at: URWW (VOLGOGRAD/GUMRAK, RU) observed 2300 UTC 16 June 2019
Temperature: 17.0°C (63°F)
Dewpoint: 16.0°C (61°F) [RH = 94%]
Pressure (altimeter): 29.82 inches Hg (1010.0 mb)
Winds: from the NW (310 degrees) at 9 MPH (8 knots; 4.1 m/s)
Visibility: 6 or more miles (10+ km)
Ceiling: ceiling and visibility are OK
Clouds: unknown
Weather: no significant weather observed at this time

METAR text: URWW 162230Z 28002MPS CAVOK 17/17 Q1010 R24/290155 TEMPO VRB12G20MPS 0500 +TSRAGR SQ BKN003 BKN040CB
Conditions at: URWW (VOLGOGRAD/GUMRAK, RU) observed 2230 UTC 16 June 2019
Temperature: 17.0°C (63°F)
Dewpoint: 17.0°C (63°F) [RH = 100%]
Pressure (altimeter): 29.82 inches Hg (1010.0 mb)
Winds: from the W (280 degrees) at 5 MPH (4 knots; 2.1 m/s)
Visibility: 6 or more miles (10+ km)
Ceiling: ceiling and visibility are OK
Clouds: unknown
Weather: no significant weather observed at this time

METAR text: URWW 162200Z 19003MPS 160V220 9999 SCT050CB 18/17 Q1010 R06/290155 TEMPO VRB12G20MPS 0500 +TSRAGR SQ BKN003 BKN040CB
Conditions at: URWW (VOLGOGRAD/GUMRAK, RU) observed 2200 UTC 16 June 2019
Temperature: 18.0°C (64°F)
Dewpoint: 17.0°C (63°F) [RH = 94%]
Pressure (altimeter): 29.82 inches Hg (1010.0 mb)
Winds: from the S (190 degrees) at 7 MPH (6 knots; 3.1 m/s)
Visibility: 6 or more miles (10+ km)
Ceiling: at least 12,000 feet AGL
Clouds: scattered clouds at 5000 feet AGL
Weather: no significant weather observed at this time

METAR text: URWW 162130Z 21005MPS 9999 -SHRA SCT050CB 18/17 Q1011 R24/290155 TEMPO VRB12G20MPS 0500 +TSRAGR SQ BKN003 BKN040CB
Conditions at: URWW (VOLGOGRAD/GUMRAK, RU) observed 2130 UTC 16 June 2019
Temperature: 18.0°C (64°F)
Dewpoint: 17.0°C (63°F) [RH = 94%]
Pressure (altimeter): 29.85 inches Hg (1011.0 mb)
Winds: from the SSW (210 degrees) at 12 MPH (10 knots; 5.1 m/s)
Visibility: 6 or more miles (10+ km)
Ceiling: at least 12,000 feet AGL
Clouds: scattered clouds at 5000 feet AGL
Weather: -SHRA  (light rain showers)

METAR text: URWW 162100Z 18003MPS 140V230 9999 -SHRA BKN050CB 18/17 Q1011 RETS R24/290155 TEMPO VRB12G20MPS 0500 +TSRAGR SQ BKN003 BKN040CB
Conditions at: URWW (VOLGOGRAD/GUMRAK, RU) observed 2100 UTC 16 June 2019
Temperature: 18.0°C (64°F)
Dewpoint: 17.0°C (63°F) [RH = 94%]
Pressure (altimeter): 29.85 inches Hg (1011.0 mb)
Winds: from the S (180 degrees) at 7 MPH (6 knots; 3.1 m/s)
Visibility: 6 or more miles (10+ km)
Ceiling: 5000 feet AGL
Clouds: broken clouds at 5000 feet AGL
Weather: -SHRA  (light rain showers)

METAR text: URWW 162030Z 22004MPS 9000 -TSRA BKN060CB 18/18 Q1012 R24/290155 TEMPO -TSRAGR
Conditions at: URWW (VOLGOGRAD/GUMRAK, RU) observed 2030 UTC 16 June 2019
Temperature: 18.0°C (64°F)
Dewpoint: 18.0°C (64°F) [RH = 100%]
Pressure (altimeter): 29.88 inches Hg (1012.0 mb)
Winds: from the SW (220 degrees) at 9 MPH (8 knots; 4.1 m/s)
Visibility: 6 miles ( 9 km)
Ceiling: 6000 feet AGL
Clouds: broken clouds at 6000 feet AGL
Weather: -TSRA  (light rain associated with thunderstorm(s))

METAR text: URWW 162000Z 26003MPS 9999 -TSRA BKN050CB 19/17 Q1011 R06/290155 TEMPO -TSRAGR
Conditions at: URWW (VOLGOGRAD/GUMRAK, RU) observed 2000 UTC 16 June 2019
Temperature: 19.0°C (66°F)
Dewpoint: 17.0°C (63°F) [RH = 88%]
Pressure (altimeter): 29.85 inches Hg (1011.0 mb)
Winds: from the W (260 degrees) at 7 MPH (6 knots; 3.1 m/s)
Visibility: 6 or more miles (10+ km)
Ceiling: 5000 feet AGL
Clouds: broken clouds at 5000 feet AGL
Weather: -TSRA  (light rain associated with thunderstorm(s))

METAR text: URWW 161930Z 27002MPS 9999 -SHRA BKN053CB 19/18 Q1011 RETS R06/290155 TEMPO VRB10G20MPS 0500 +TSRAGR SQ BKN003 BKN040CB
Conditions at: URWW (VOLGOGRAD/GUMRAK, RU) observed 1930 UTC 16 June 2019
Temperature: 19.0°C (66°F)
Dewpoint: 18.0°C (64°F) [RH = 94%]
Pressure (altimeter): 29.85 inches Hg (1011.0 mb)
Winds: from the W (270 degrees) at 5 MPH (4 knots; 2.1 m/s)
Visibility: 6 or more miles (10+ km)
Ceiling: 5300 feet AGL
Clouds: broken clouds at 5300 feet AGL
Weather: -SHRA  (light rain showers)

METAR text: URWW 161900Z 31004MPS 9000 -TSRA BKN050CB 19/17 Q1011 R06/290155 TEMPO VRB10G20MPS 0500 +TSRAGR SQ BKN003 BKN040CB
Conditions at: URWW (VOLGOGRAD/GUMRAK, RU) observed 1900 UTC 16 June 2019
Temperature: 19.0°C (66°F)
Dewpoint: 17.0°C (63°F) [RH = 88%]
Pressure (altimeter): 29.85 inches Hg (1011.0 mb)
Winds: from the NW (310 degrees) at 9 MPH (8 knots; 4.1 m/s)
Visibility: 6 miles ( 9 km)
Ceiling: 5000 feet AGL
Clouds: broken clouds at 5000 feet AGL
Weather: -TSRA  (light rain associated with thunderstorm(s))

METAR text: URWW 161830Z 32005MPS 9999 -TSRA BKN053CB 20/17 Q1011 R06/010070 TEMPO VRB10G20MPS 0500 +TSRAGR SQ BKN003 BKN040CB
Conditions at: URWW (VOLGOGRAD/GUMRAK, RU) observed 1830 UTC 16 June 2019
Temperature: 20.0°C (68°F)
Dewpoint: 17.0°C (63°F) [RH = 83%]
Pressure (altimeter): 29.85 inches Hg (1011.0 mb)
Winds: from the NW (320 degrees) at 12 MPH (10 knots; 5.1 m/s)
Visibility: 6 or more miles (10+ km)
Ceiling: 5300 feet AGL
Clouds: broken clouds at 5300 feet AGL
Weather: -TSRA  (light rain associated with thunderstorm(s))

METAR text: URWW 161800Z VRB01MPS 9999 TS BKN060CB 21/17 Q1010 R06/010070 TEMPO VRB10G20MPS 0500 +TSRAGR SQ BKN003 BKN040CB
Conditions at: URWW (VOLGOGRAD/GUMRAK, RU) observed 1800 UTC 16 June 2019
Temperature: 21.0°C (70°F)
Dewpoint: 17.0°C (63°F) [RH = 78%]
Pressure (altimeter): 29.82 inches Hg (1010.0 mb)
Winds: variable direction winds at 2 MPH (2 knots; 1.0 m/s)
Visibility: 6 or more miles (10+ km)
Ceiling: 6000 feet AGL
Clouds: broken clouds at 6000 feet AGL
Weather: TS  (thunderstorm)

METAR text: URWW 161730Z VRB01MPS 9999 TS BKN060CB 21/17 Q1010 R06/010070 TEMPO VRB10G20MPS 0500 +TSRAGR SQ BKN003 BKN040CB
Conditions at: URWW (VOLGOGRAD/GUMRAK, RU) observed 1730 UTC 16 June 2019
Temperature: 21.0°C (70°F)
Dewpoint: 17.0°C (63°F) [RH = 78%]
Pressure (altimeter): 29.82 inches Hg (1010.0 mb)
Winds: variable direction winds at 2 MPH (2 knots; 1.0 m/s)
Visibility: 6 or more miles (10+ km)
Ceiling: 6000 feet AGL
Clouds: broken clouds at 6000 feet AGL
Weather: TS  (thunderstorm)

METAR text: URWW 161700Z 05003MPS 9999 -TSRA BKN050CB 21/17 Q1010 R06/010070 TEMPO VRB10G20MPS 0500 +TSRAGR BKN003 BKN040CB
Conditions at: URWW (VOLGOGRAD/GUMRAK, RU) observed 1700 UTC 16 June 2019
Temperature: 21.0°C (70°F)
Dewpoint: 17.0°C (63°F) [RH = 78%]
Pressure (altimeter): 29.82 inches Hg (1010.0 mb)
Winds: from the NE (50 degrees) at 7 MPH (6 knots; 3.1 m/s)
Visibility: 6 or more miles (10+ km)
Ceiling: 5000 feet AGL
Clouds: broken clouds at 5000 feet AGL
Weather: -TSRA  (light rain associated with thunderstorm(s))

METAR text: URWW 161630Z 03004MPS CAVOK 22/17 Q1010 R06/010070 TEMPO -TSRAGR BKN040CB
Conditions at: URWW (VOLGOGRAD/GUMRAK, RU) observed 1630 UTC 16 June 2019
Temperature: 22.0°C (72°F)
Dewpoint: 17.0°C (63°F) [RH = 73%]
Pressure (altimeter): 29.82 inches Hg (1010.0 mb)
Winds: from the NNE (30 degrees) at 9 MPH (8 knots; 4.1 m/s)
Visibility: 6 or more miles (10+ km)
Ceiling: ceiling and visibility are OK
Clouds: unknown
Weather: no significant weather observed at this time

METAR text: URWW 161600Z 02004MPS CAVOK 22/17 Q1010 R06/010070 TEMPO -TSRAGR BKN040CB
Conditions at: URWW (VOLGOGRAD/GUMRAK, RU) observed 1600 UTC 16 June 2019
Temperature: 22.0°C (72°F)
Dewpoint: 17.0°C (63°F) [RH = 73%]
Pressure (altimeter): 29.82 inches Hg (1010.0 mb)
Winds: from the NNE (20 degrees) at 9 MPH (8 knots; 4.1 m/s)
Visibility: 6 or more miles (10+ km)
Ceiling: ceiling and visibility are OK
Clouds: unknown
Weather: no significant weather observed at this time

Forecast for: URWW (VOLGOGRAD/GUMRAK, RU)
Text: TAF URWW 180157Z 1803/1812 35003G08MPS CAVOK
Forecast period: 0300 to 1200 UTC 18 June 2019
Forecast type: FROM: standard forecast or significant change
Winds: from the N (350 degrees) at 7 MPH (6 knots; 3.1 m/s)
gusting to 18 MPH (16 knots; 8.2 m/s)
Visibility: 6 or more miles 10+ km)
Ceiling: unknown
Clouds: missing
Weather: NSW  (no significant weather)
Text: TEMPO 1803/1806 03003G08MPS
Forecast period: 0300 to 0600 UTC 18 June 2019
Forecast type: TEMPORARY: The following changes expected for less than half the time period
Winds: from the NNE (30 degrees) at 7 MPH (6 knots; 3.1 m/s)
gusting to 18 MPH (16 knots; 8.2 m/s)
Visibility: missing
Ceiling: unknown
Clouds: missing
Weather: no significant weather forecast for this period
Text: TEMPO 1806/1812 03003G08MPS 9999 SCT040CB
Forecast period: 0600 to 1200 UTC 18 June 2019
Forecast type: TEMPORARY: The following changes expected for less than half the time period
Winds: from the NNE (30 degrees) at 7 MPH (6 knots; 3.1 m/s)
gusting to 18 MPH (16 knots; 8.2 m/s)
Visibility: 6 or more miles 10+ km)
Ceiling: at least 12,000 feet AGL
Clouds: scattered clouds at 4000 feet AGL
Weather: no significant weather forecast for this period